createdAt,value
2018-06-05T17:18:13.696Z,24.30
2018-06-05T17:23:10.521Z,23.90
2018-06-05T17:25:38.987Z,23.90
2018-06-05T17:28:07.530Z,23.80
2018-06-05T17:30:36.027Z,23.70
2018-06-05T17:33:04.480Z,23.50
2018-06-05T17:38:01.593Z,23.50
2018-06-05T17:40:30.169Z,23.40
2018-06-05T17:42:58.691Z,23.40
2018-06-05T17:45:27.279Z,23.40
2018-06-05T17:47:55.795Z,23.40
2018-06-05T17:52:52.523Z,23.10
2018-06-05T17:55:21.013Z,23.10
2018-06-05T17:57:49.574Z,23.00
2018-06-05T18:00:18.068Z,22.90
2018-06-05T18:02:46.708Z,22.90
2018-06-05T18:05:15.215Z,22.90
2018-06-05T18:07:43.801Z,23.00
2018-06-05T18:10:12.299Z,23.00
2018-06-05T18:12:40.820Z,23.00
2018-06-05T18:20:05.896Z,22.80
2018-06-05T18:22:34.589Z,22.80
2018-06-05T18:25:03.324Z,22.90
2018-06-05T18:27:31.947Z,22.90
2018-06-05T18:30:00.492Z,22.80
2018-06-05T18:32:28.966Z,22.80
2018-06-05T18:37:25.918Z,22.60
2018-06-05T18:39:54.463Z,22.60
2018-06-05T18:42:23.033Z,22.50
2018-06-05T18:44:51.553Z,22.40
2018-06-05T18:47:20.118Z,22.40
2018-06-05T18:49:48.787Z,22.40
2018-06-05T18:52:18.355Z,22.40
2018-06-05T18:57:15.904Z,22.20
2018-06-05T18:59:44.821Z,22.10
2018-06-05T19:02:13.471Z,22.10
2018-06-05T19:04:42.055Z,22.10
2018-06-05T19:07:11.679Z,22.00
2018-06-05T19:09:40.856Z,22.00
2018-06-05T19:12:09.904Z,22.00
2018-06-05T19:14:38.932Z,21.90
2018-06-05T19:19:35.946Z,21.90
2018-06-05T19:22:06.136Z,21.80
2018-06-05T19:24:36.453Z,21.90
2018-06-05T19:29:35.177Z,21.70
2018-06-05T19:32:04.872Z,21.80
2018-06-05T19:34:33.437Z,21.80
2018-06-05T19:37:03.407Z,21.70
2018-06-05T19:39:31.981Z,21.60
2018-06-05T19:42:00.603Z,21.60
2018-06-05T19:44:29.095Z,21.50
2018-06-05T19:46:58.367Z,21.50
2018-06-05T19:51:55.220Z,21.40
2018-06-05T19:54:24.409Z,21.30
2018-06-05T19:56:53.837Z,21.20
2018-06-05T20:04:20.255Z,20.90
2018-06-05T20:06:49.313Z,20.90
2018-06-05T20:11:49.710Z,20.90
2018-06-05T20:14:19.273Z,20.80
2018-06-05T20:16:48.906Z,20.70
2018-06-05T20:19:17.531Z,20.60
2018-06-05T20:21:46.043Z,20.60
2018-06-05T20:24:15.180Z,20.60
2018-06-05T20:26:45.250Z,20.60
2018-06-05T20:29:14.042Z,20.60
2018-06-05T20:34:12.672Z,20.50
2018-06-05T20:36:41.315Z,20.40
2018-06-05T20:39:10.965Z,20.40
2018-06-05T20:41:39.817Z,20.40
2018-06-05T20:44:08.393Z,20.40
2018-06-05T20:46:38.629Z,20.30
2018-06-05T20:51:35.850Z,20.30
2018-06-05T20:54:05.539Z,20.30
2018-06-05T20:56:35.123Z,20.20
2018-06-05T20:59:04.435Z,20.20
2018-06-05T21:01:34.132Z,20.20
2018-06-05T21:04:02.842Z,20.10
2018-06-05T21:06:31.493Z,20.10
2018-06-05T21:09:00.124Z,20.00
2018-06-05T21:11:28.702Z,20.00
2018-06-05T21:13:57.263Z,20.00
2018-06-05T21:18:53.971Z,19.90
2018-06-05T21:21:22.482Z,19.90
2018-06-05T21:23:50.952Z,19.90
2018-06-05T21:26:19.417Z,19.90
2018-06-05T21:28:47.885Z,19.90
2018-06-05T21:31:16.428Z,19.80
2018-06-05T21:38:41.425Z,19.70
2018-06-05T21:41:09.900Z,19.70
2018-06-05T21:43:38.493Z,19.70
2018-06-05T21:46:07.028Z,19.70
2018-06-05T21:48:36.323Z,19.60
2018-06-05T21:51:04.910Z,19.60
2018-06-05T21:53:33.343Z,19.60
2018-06-05T21:56:01.911Z,19.60
2018-06-05T21:58:30.431Z,19.50
2018-06-05T22:03:27.083Z,19.50
2018-06-05T22:05:57.015Z,19.50
2018-06-05T22:08:25.559Z,19.40
2018-06-05T22:10:54.217Z,19.50
2018-06-05T22:13:22.933Z,19.50
2018-06-05T22:15:51.720Z,19.50
2018-06-05T22:18:20.418Z,19.50
2018-06-05T22:20:48.936Z,19.40
2018-06-05T22:25:45.622Z,19.40
2018-06-05T22:28:14.116Z,19.40
2018-06-05T22:30:43.932Z,19.30
2018-06-05T22:33:12.787Z,19.30
2018-06-05T22:35:41.746Z,19.30
2018-06-05T22:38:10.237Z,19.30
2018-06-05T22:43:08.058Z,19.20
2018-06-05T22:45:36.857Z,19.20
2018-06-05T22:48:05.911Z,19.20
2018-06-05T22:50:34.463Z,19.10
2018-06-05T22:53:02.950Z,19.10
2018-06-05T22:55:31.427Z,19.10
2018-06-05T22:57:59.978Z,19.10
2018-06-05T23:00:32.752Z,19.10
2018-06-05T23:03:01.306Z,19.10
2018-06-05T23:07:57.956Z,19.00
2018-06-05T23:12:54.578Z,19.00
2018-06-05T23:15:23.084Z,19.00
2018-06-05T23:17:51.571Z,19.00
2018-06-05T23:20:20.043Z,19.00
2018-06-05T23:22:48.893Z,18.90
2018-06-05T23:25:17.739Z,18.90
2018-06-05T23:32:42.876Z,18.80
2018-06-05T23:37:39.740Z,18.80
2018-06-05T23:40:08.163Z,18.70
2018-06-05T23:42:36.705Z,18.70
2018-06-05T23:47:33.548Z,18.70
2018-06-05T23:50:02.077Z,18.60
2018-06-05T23:52:30.587Z,18.60
2018-06-05T23:54:59.419Z,18.60
2018-06-05T23:57:28.007Z,18.60
